sensor_id;sensor_type;location;lat;lon;timestamp;pressure;altitude;pressure_sealevel;temperature;humidity
22333;BME280;11334;36.986;-121.936;2023-04-26T00:01:02;100872.13;;;30.59;31.41
22333;BME280;11334;36.986;-121.936;2023-04-26T00:03:30;100873.31;;;30.91;30.90
22333;BME280;11334;36.986;-121.936;2023-04-26T00:06:00;100857.97;;;31.23;30.68
22333;BME280;11334;36.986;-121.936;2023-04-26T00:08:30;100861.41;;;31.39;30.12
22333;BME280;11334;36.986;-121.936;2023-04-26T00:10:56;100859.16;;;31.46;30.18
22333;BME280;11334;36.986;-121.936;2023-04-26T00:13:23;100864.00;;;31.53;30.34
22333;BME280;11334;36.986;-121.936;2023-04-26T00:15:49;100859.94;;;31.97;29.75
22333;BME280;11334;36.986;-121.936;2023-04-26T00:18:15;100856.84;;;32.27;29.82
22333;BME280;11334;36.986;-121.936;2023-04-26T00:20:42;100862.22;;;32.55;29.81
22333;BME280;11334;36.986;-121.936;2023-04-26T00:23:08;100858.28;;;32.79;30.04
22333;BME280;11334;36.986;-121.936;2023-04-26T00:25:35;100857.31;;;32.88;29.78
22333;BME280;11334;36.986;-121.936;2023-04-26T00:28:02;100867.00;;;33.17;30.04
22333;BME280;11334;36.986;-121.936;2023-04-26T00:30:29;100857.25;;;33.25;29.61
22333;BME280;11334;36.986;-121.936;2023-04-26T00:32:58;100864.47;;;33.52;29.57
22333;BME280;11334;36.986;-121.936;2023-04-26T00:35:24;100862.50;;;33.40;29.42
22333;BME280;11334;36.986;-121.936;2023-04-26T00:37:50;100872.53;;;33.62;29.42
22333;BME280;11334;36.986;-121.936;2023-04-26T00:40:16;100877.81;;;33.59;29.67
22333;BME280;11334;36.986;-121.936;2023-04-26T00:42:45;100868.69;;;33.32;29.58
22333;BME280;11334;36.986;-121.936;2023-04-26T00:45:11;100879.19;;;33.75;29.37
22333;BME280;11334;36.986;-121.936;2023-04-26T00:47:37;100884.00;;;34.09;28.86
22333;BME280;11334;36.986;-121.936;2023-04-26T00:50:06;100879.13;;;34.33;28.16
22333;BME280;11334;36.986;-121.936;2023-04-26T00:52:33;100880.59;;;34.52;27.98
22333;BME280;11334;36.986;-121.936;2023-04-26T00:54:59;100877.19;;;34.68;28.18
22333;BME280;11334;36.986;-121.936;2023-04-26T00:57:26;100886.72;;;34.62;27.58
22333;BME280;11334;36.986;-121.936;2023-04-26T00:59:52;100892.16;;;34.27;28.04
22333;BME280;11334;36.986;-121.936;2023-04-26T01:02:18;100892.16;;;34.14;28.08
22333;BME280;11334;36.986;-121.936;2023-04-26T01:04:44;100894.97;;;34.62;27.78
22333;BME280;11334;36.986;-121.936;2023-04-26T01:07:11;100895.41;;;34.29;27.68
22333;BME280;11334;36.986;-121.936;2023-04-26T01:09:37;100903.03;;;33.92;28.41
22333;BME280;11334;36.986;-121.936;2023-04-26T01:12:05;100900.00;;;33.94;28.11
22333;BME280;11334;36.986;-121.936;2023-04-26T01:14:33;100893.97;;;33.92;28.13
22333;BME280;11334;36.986;-121.936;2023-04-26T01:17:02;100906.84;;;33.83;28.24
22333;BME280;11334;36.986;-121.936;2023-04-26T01:19:28;100896.50;;;33.75;28.71
22333;BME280;11334;36.986;-121.936;2023-04-26T01:21:54;100890.97;;;33.62;28.43
22333;BME280;11334;36.986;-121.936;2023-04-26T01:24:21;100892.94;;;33.75;28.31
22333;BME280;11334;36.986;-121.936;2023-04-26T01:26:48;100892.47;;;33.23;28.30
22333;BME280;11334;36.986;-121.936;2023-04-26T01:29:20;100888.88;;;33.41;28.41
22333;BME280;11334;36.986;-121.936;2023-04-26T01:31:47;100898.66;;;33.15;28.82
22333;BME280;11334;36.986;-121.936;2023-04-26T01:34:14;100893.72;;;32.80;29.14
22333;BME280;11334;36.986;-121.936;2023-04-26T01:36:41;100896.88;;;32.69;28.98
22333;BME280;11334;36.986;-121.936;2023-04-26T01:39:07;100907.78;;;32.56;29.65
22333;BME280;11334;36.986;-121.936;2023-04-26T01:41:34;100897.88;;;32.13;30.09
22333;BME280;11334;36.986;-121.936;2023-04-26T01:44:00;100899.50;;;31.35;30.85
22333;BME280;11334;36.986;-121.936;2023-04-26T01:46:26;100901.41;;;30.54;31.83
22333;BME280;11334;36.986;-121.936;2023-04-26T01:48:53;100900.94;;;29.25;33.31
22333;BME280;11334;36.986;-121.936;2023-04-26T01:51:19;100907.16;;;28.67;34.52
22333;BME280;11334;36.986;-121.936;2023-04-26T01:53:46;100906.31;;;28.01;35.55
22333;BME280;11334;36.986;-121.936;2023-04-26T01:56:12;100919.66;;;26.95;37.28
22333;BME280;11334;36.986;-121.936;2023-04-26T01:58:38;100913.78;;;26.13;39.03
22333;BME280;11334;36.986;-121.936;2023-04-26T02:01:08;100929.63;;;25.46;40.52
22333;BME280;11334;36.986;-121.936;2023-04-26T02:03:35;100921.31;;;24.76;41.98
22333;BME280;11334;36.986;-121.936;2023-04-26T02:06:02;100920.94;;;24.06;43.27
22333;BME280;11334;36.986;-121.936;2023-04-26T02:08:28;100930.88;;;23.67;44.73
22333;BME280;11334;36.986;-121.936;2023-04-26T02:10:54;100916.00;;;23.13;46.09
22333;BME280;11334;36.986;-121.936;2023-04-26T02:13:21;100935.88;;;22.78;47.20
22333;BME280;11334;36.986;-121.936;2023-04-26T02:15:48;100927.66;;;22.26;48.44
22333;BME280;11334;36.986;-121.936;2023-04-26T02:18:15;100942.94;;;21.96;50.43
22333;BME280;11334;36.986;-121.936;2023-04-26T02:20:43;100949.53;;;21.65;51.26
22333;BME280;11334;36.986;-121.936;2023-04-26T02:23:11;100949.47;;;21.47;51.94
22333;BME280;11334;36.986;-121.936;2023-04-26T02:25:38;100955.38;;;21.07;53.33
22333;BME280;11334;36.986;-121.936;2023-04-26T02:28:05;100956.81;;;20.86;54.46
22333;BME280;11334;36.986;-121.936;2023-04-26T02:30:31;100958.59;;;20.61;55.87
22333;BME280;11334;36.986;-121.936;2023-04-26T02:32:57;100961.56;;;20.40;57.03
22333;BME280;11334;36.986;-121.936;2023-04-26T02:35:24;100959.19;;;20.13;58.26
22333;BME280;11334;36.986;-121.936;2023-04-26T02:37:51;100962.56;;;20.02;58.27
22333;BME280;11334;36.986;-121.936;2023-04-26T02:40:18;100957.84;;;19.85;59.31
22333;BME280;11334;36.986;-121.936;2023-04-26T02:42:44;100961.34;;;19.66;60.34
22333;BME280;11334;36.986;-121.936;2023-04-26T02:45:11;100963.66;;;19.44;61.52
22333;BME280;11334;36.986;-121.936;2023-04-26T02:47:37;100962.22;;;19.35;61.77
22333;BME280;11334;36.986;-121.936;2023-04-26T02:50:07;100967.19;;;19.19;62.98
22333;BME280;11334;36.986;-121.936;2023-04-26T02:52:35;100965.72;;;19.03;63.83
22333;BME280;11334;36.986;-121.936;2023-04-26T02:55:04;100972.53;;;18.93;64.56
22333;BME280;11334;36.986;-121.936;2023-04-26T02:57:31;100971.22;;;18.76;65.16
22333;BME280;11334;36.986;-121.936;2023-04-26T02:59:58;100972.00;;;18.58;66.14
22333;BME280;11334;36.986;-121.936;2023-04-26T03:02:24;100962.88;;;18.46;66.63
22333;BME280;11334;36.986;-121.936;2023-04-26T03:04:51;100961.81;;;18.40;66.57
22333;BME280;11334;36.986;-121.936;2023-04-26T03:07:17;100972.72;;;18.33;67.35
22333;BME280;11334;36.986;-121.936;2023-04-26T03:09:43;100971.41;;;18.16;68.19
22333;BME280;11334;36.986;-121.936;2023-04-26T03:12:11;100970.75;;;18.07;68.70
22333;BME280;11334;36.986;-121.936;2023-04-26T03:14:37;100992.31;;;17.93;69.46
22333;BME280;11334;36.986;-121.936;2023-04-26T03:17:03;100994.31;;;17.85;70.34
22333;BME280;11334;36.986;-121.936;2023-04-26T03:19:29;100992.03;;;17.82;70.37
22333;BME280;11334;36.986;-121.936;2023-04-26T03:21:56;100995.25;;;17.71;70.68
22333;BME280;11334;36.986;-121.936;2023-04-26T03:24:22;101000.44;;;17.72;70.75
22333;BME280;11334;36.986;-121.936;2023-04-26T03:26:48;100999.56;;;17.66;70.89
22333;BME280;11334;36.986;-121.936;2023-04-26T03:29:15;101002.97;;;17.53;71.80
22333;BME280;11334;36.986;-121.936;2023-04-26T03:31:42;101004.56;;;17.48;72.10
22333;BME280;11334;36.986;-121.936;2023-04-26T03:34:08;101007.19;;;17.41;72.42
22333;BME280;11334;36.986;-121.936;2023-04-26T03:36:34;101007.72;;;17.31;72.36
22333;BME280;11334;36.986;-121.936;2023-04-26T03:39:00;101009.13;;;17.27;72.51
22333;BME280;11334;36.986;-121.936;2023-04-26T03:41:27;101015.94;;;17.29;72.46
22333;BME280;11334;36.986;-121.936;2023-04-26T03:43:53;101019.25;;;17.31;72.45
22333;BME280;11334;36.986;-121.936;2023-04-26T03:46:19;101013.22;;;17.23;72.45
22333;BME280;11334;36.986;-121.936;2023-04-26T03:48:45;101011.91;;;17.12;72.71
22333;BME280;11334;36.986;-121.936;2023-04-26T03:51:11;101020.84;;;17.05;73.41
22333;BME280;11334;36.986;-121.936;2023-04-26T03:53:38;101018.00;;;16.92;73.84
22333;BME280;11334;36.986;-121.936;2023-04-26T03:56:04;101017.31;;;16.84;73.73
22333;BME280;11334;36.986;-121.936;2023-04-26T03:58:30;101022.59;;;16.77;74.58
22333;BME280;11334;36.986;-121.936;2023-04-26T04:00:57;101037.78;;;16.71;75.28
22333;BME280;11334;36.986;-121.936;2023-04-26T04:03:23;101027.06;;;16.71;74.98
22333;BME280;11334;36.986;-121.936;2023-04-26T04:05:49;101035.28;;;16.69;75.08
22333;BME280;11334;36.986;-121.936;2023-04-26T04:08:16;101040.78;;;16.68;75.26
22333;BME280;11334;36.986;-121.936;2023-04-26T04:10:43;101035.19;;;16.63;74.69
22333;BME280;11334;36.986;-121.936;2023-04-26T04:13:10;101048.13;;;16.59;75.68
22333;BME280;11334;36.986;-121.936;2023-04-26T04:15:36;101040.19;;;16.51;75.86
22333;BME280;11334;36.986;-121.936;2023-04-26T04:18:02;101043.31;;;16.55;75.73
22333;BME280;11334;36.986;-121.936;2023-04-26T04:20:29;101043.44;;;16.47;75.69
22333;BME280;11334;36.986;-121.936;2023-04-26T04:22:55;101045.78;;;16.36;76.20
22333;BME280;11334;36.986;-121.936;2023-04-26T04:25:24;101049.09;;;16.23;76.64
22333;BME280;11334;36.986;-121.936;2023-04-26T04:27:51;101052.97;;;16.21;76.87
22333;BME280;11334;36.986;-121.936;2023-04-26T04:30:18;101053.00;;;16.13;77.21
22333;BME280;11334;36.986;-121.936;2023-04-26T04:32:44;101055.22;;;15.95;77.93
22333;BME280;11334;36.986;-121.936;2023-04-26T04:35:11;101055.41;;;15.94;77.90
22333;BME280;11334;36.986;-121.936;2023-04-26T04:37:38;101048.78;;;15.90;78.12
22333;BME280;11334;36.986;-121.936;2023-04-26T04:40:05;101053.00;;;15.84;78.62
22333;BME280;11334;36.986;-121.936;2023-04-26T04:42:33;101058.53;;;15.83;78.50
22333;BME280;11334;36.986;-121.936;2023-04-26T04:45:00;101057.97;;;15.87;78.59
22333;BME280;11334;36.986;-121.936;2023-04-26T04:47:27;101060.66;;;15.87;78.13
22333;BME280;11334;36.986;-121.936;2023-04-26T04:49:53;101048.56;;;15.77;78.17
22333;BME280;11334;36.986;-121.936;2023-04-26T04:52:19;101057.41;;;15.78;77.86
22333;BME280;11334;36.986;-121.936;2023-04-26T04:54:46;101052.69;;;15.65;78.65
22333;BME280;11334;36.986;-121.936;2023-04-26T04:57:13;101055.19;;;15.67;78.68
22333;BME280;11334;36.986;-121.936;2023-04-26T04:59:41;101061.63;;;15.58;79.25
22333;BME280;11334;36.986;-121.936;2023-04-26T05:02:08;101059.84;;;15.50;78.98
22333;BME280;11334;36.986;-121.936;2023-04-26T05:04:34;101055.28;;;15.37;80.02
22333;BME280;11334;36.986;-121.936;2023-04-26T05:07:00;101064.97;;;15.38;80.37
22333;BME280;11334;36.986;-121.936;2023-04-26T05:09:26;101062.97;;;15.40;80.02
22333;BME280;11334;36.986;-121.936;2023-04-26T05:11:53;101058.31;;;15.34;79.85
22333;BME280;11334;36.986;-121.936;2023-04-26T05:14:19;101057.19;;;15.28;79.99
22333;BME280;11334;36.986;-121.936;2023-04-26T05:16:45;101069.44;;;15.23;80.23
22333;BME280;11334;36.986;-121.936;2023-04-26T05:19:11;101067.44;;;15.17;79.87
22333;BME280;11334;36.986;-121.936;2023-04-26T05:21:38;101068.50;;;15.08;80.41
22333;BME280;11334;36.986;-121.936;2023-04-26T05:24:04;101068.84;;;15.05;80.46
22333;BME280;11334;36.986;-121.936;2023-04-26T05:26:30;101069.22;;;15.02;80.24
22333;BME280;11334;36.986;-121.936;2023-04-26T05:28:56;101073.25;;;14.98;80.41
22333;BME280;11334;36.986;-121.936;2023-04-26T05:31:23;101068.13;;;14.89;80.96
22333;BME280;11334;36.986;-121.936;2023-04-26T05:33:49;101079.97;;;14.86;81.18
22333;BME280;11334;36.986;-121.936;2023-04-26T05:36:16;101069.31;;;14.86;81.01
22333;BME280;11334;36.986;-121.936;2023-04-26T05:38:42;101069.81;;;14.82;81.14
22333;BME280;11334;36.986;-121.936;2023-04-26T05:41:08;101067.34;;;14.81;81.07
22333;BME280;11334;36.986;-121.936;2023-04-26T05:43:36;101062.53;;;14.76;80.85
22333;BME280;11334;36.986;-121.936;2023-04-26T05:46:02;101064.06;;;14.71;81.78
22333;BME280;11334;36.986;-121.936;2023-04-26T05:48:28;101064.19;;;14.77;81.25
22333;BME280;11334;36.986;-121.936;2023-04-26T05:50:54;101066.75;;;14.71;81.45
22333;BME280;11334;36.986;-121.936;2023-04-26T05:53:21;101081.13;;;14.62;82.42
22333;BME280;11334;36.986;-121.936;2023-04-26T05:55:47;101078.63;;;14.60;82.13
22333;BME280;11334;36.986;-121.936;2023-04-26T05:58:13;101069.31;;;14.56;82.71
22333;BME280;11334;36.986;-121.936;2023-04-26T06:00:39;101059.25;;;14.36;82.77
22333;BME280;11334;36.986;-121.936;2023-04-26T06:03:06;101076.22;;;14.35;83.25
22333;BME280;11334;36.986;-121.936;2023-04-26T06:05:32;101081.25;;;14.38;83.25
22333;BME280;11334;36.986;-121.936;2023-04-26T06:07:58;101079.59;;;14.29;83.38
22333;BME280;11334;36.986;-121.936;2023-04-26T06:10:26;101091.06;;;14.30;83.22
22333;BME280;11334;36.986;-121.936;2023-04-26T06:12:52;101080.91;;;14.33;82.33
22333;BME280;11334;36.986;-121.936;2023-04-26T06:15:18;101085.75;;;14.30;82.57
22333;BME280;11334;36.986;-121.936;2023-04-26T06:17:45;101082.75;;;14.25;82.76
22333;BME280;11334;36.986;-121.936;2023-04-26T06:20:11;101086.97;;;14.12;83.28
22333;BME280;11334;36.986;-121.936;2023-04-26T06:22:37;101077.97;;;14.13;83.88
22333;BME280;11334;36.986;-121.936;2023-04-26T06:25:04;101081.00;;;14.02;84.58
22333;BME280;11334;36.986;-121.936;2023-04-26T06:27:31;101091.81;;;14.08;84.80
22333;BME280;11334;36.986;-121.936;2023-04-26T06:29:57;101096.66;;;14.05;84.89
22333;BME280;11334;36.986;-121.936;2023-04-26T06:32:24;101087.50;;;13.99;85.46
22333;BME280;11334;36.986;-121.936;2023-04-26T06:34:53;101093.97;;;13.97;85.38
22333;BME280;11334;36.986;-121.936;2023-04-26T06:37:19;101095.66;;;13.98;85.60
22333;BME280;11334;36.986;-121.936;2023-04-26T06:39:46;101095.16;;;13.94;85.80
22333;BME280;11334;36.986;-121.936;2023-04-26T06:42:12;101101.31;;;13.95;85.63
22333;BME280;11334;36.986;-121.936;2023-04-26T06:44:38;101096.81;;;13.88;86.30
22333;BME280;11334;36.986;-121.936;2023-04-26T06:47:04;101083.03;;;13.76;86.21
22333;BME280;11334;36.986;-121.936;2023-04-26T06:49:34;101083.19;;;13.83;85.39
22333;BME280;11334;36.986;-121.936;2023-04-26T06:52:01;101087.53;;;13.84;84.89
22333;BME280;11334;36.986;-121.936;2023-04-26T06:54:28;101087.50;;;13.76;85.55
22333;BME280;11334;36.986;-121.936;2023-04-26T06:56:55;101085.88;;;13.67;85.75
22333;BME280;11334;36.986;-121.936;2023-04-26T06:59:21;101086.03;;;13.65;85.51
22333;BME280;11334;36.986;-121.936;2023-04-26T07:01:48;101086.03;;;13.65;84.94
22333;BME280;11334;36.986;-121.936;2023-04-26T07:04:14;101087.69;;;13.58;85.86
22333;BME280;11334;36.986;-121.936;2023-04-26T07:06:43;101082.72;;;13.56;85.80
22333;BME280;11334;36.986;-121.936;2023-04-26T07:09:09;101087.53;;;13.52;86.49
22333;BME280;11334;36.986;-121.936;2023-04-26T07:11:35;101094.53;;;13.53;87.14
22333;BME280;11334;36.986;-121.936;2023-04-26T07:14:01;101081.22;;;13.45;86.94
22333;BME280;11334;36.986;-121.936;2023-04-26T07:16:28;101094.03;;;13.50;87.02
22333;BME280;11334;36.986;-121.936;2023-04-26T07:18:54;101087.69;;;13.51;86.98
22333;BME280;11334;36.986;-121.936;2023-04-26T07:21:23;101083.53;;;13.48;85.97
22333;BME280;11334;36.986;-121.936;2023-04-26T07:23:56;101086.38;;;13.47;85.43
22333;BME280;11334;36.986;-121.936;2023-04-26T07:26:23;101080.41;;;13.45;85.58
22333;BME280;11334;36.986;-121.936;2023-04-26T07:28:51;101086.38;;;13.39;86.56
22333;BME280;11334;36.986;-121.936;2023-04-26T07:31:18;101073.41;;;13.28;86.94
22333;BME280;11334;36.986;-121.936;2023-04-26T07:33:44;101088.19;;;13.30;87.20
22333;BME280;11334;36.986;-121.936;2023-04-26T07:36:10;101080.72;;;13.34;87.64
22333;BME280;11334;36.986;-121.936;2023-04-26T07:38:37;101089.03;;;13.31;88.03
22333;BME280;11334;36.986;-121.936;2023-04-26T07:41:03;101083.22;;;13.27;87.47
22333;BME280;11334;36.986;-121.936;2023-04-26T07:43:30;101089.19;;;13.22;87.74
22333;BME280;11334;36.986;-121.936;2023-04-26T07:46:02;101093.34;;;13.08;87.74
22333;BME280;11334;36.986;-121.936;2023-04-26T07:48:28;101098.66;;;13.08;88.04
22333;BME280;11334;36.986;-121.936;2023-04-26T07:50:54;101102.13;;;13.09;88.60
22333;BME280;11334;36.986;-121.936;2023-04-26T07:53:21;101094.50;;;13.06;88.22
22333;BME280;11334;36.986;-121.936;2023-04-26T07:55:49;101093.66;;;13.05;88.63
22333;BME280;11334;36.986;-121.936;2023-04-26T07:58:18;101094.34;;;13.07;88.20
22333;BME280;11334;36.986;-121.936;2023-04-26T08:00:46;101093.81;;;13.04;88.15
22333;BME280;11334;36.986;-121.936;2023-04-26T08:03:14;101093.66;;;13.05;87.54
22333;BME280;11334;36.986;-121.936;2023-04-26T08:05:43;101094.00;;;13.02;88.73
22333;BME280;11334;36.986;-121.936;2023-04-26T08:08:12;101096.00;;;13.00;89.04
22333;BME280;11334;36.986;-121.936;2023-04-26T08:10:41;101096.97;;;12.99;88.17
22333;BME280;11334;36.986;-121.936;2023-04-26T08:13:08;101100.44;;;12.92;88.10
22333;BME280;11334;36.986;-121.936;2023-04-26T08:15:35;101101.94;;;12.87;88.55
22333;BME280;11334;36.986;-121.936;2023-04-26T08:18:01;101106.75;;;12.83;89.47
22333;BME280;11334;36.986;-121.936;2023-04-26T08:20:27;101099.94;;;12.81;90.24
22333;BME280;11334;36.986;-121.936;2023-04-26T08:22:57;101103.38;;;12.73;90.04
22333;BME280;11334;36.986;-121.936;2023-04-26T08:25:23;101103.91;;;12.77;89.98
22333;BME280;11334;36.986;-121.936;2023-04-26T08:27:50;101103.56;;;12.80;89.34
22333;BME280;11334;36.986;-121.936;2023-04-26T08:30:17;101103.56;;;12.80;89.77
22333;BME280;11334;36.986;-121.936;2023-04-26T08:32:44;101108.00;;;12.71;90.23
22333;BME280;11334;36.986;-121.936;2023-04-26T08:35:11;101092.38;;;12.68;89.79
22333;BME280;11334;36.986;-121.936;2023-04-26T08:37:37;101101.38;;;12.75;89.48
22333;BME280;11334;36.986;-121.936;2023-04-26T08:40:05;101093.06;;;12.70;89.74
22333;BME280;11334;36.986;-121.936;2023-04-26T08:42:39;101099.88;;;12.73;89.14
22333;BME280;11334;36.986;-121.936;2023-04-26T08:45:07;101084.06;;;12.63;88.96
22333;BME280;11334;36.986;-121.936;2023-04-26T08:47:48;101090.53;;;12.61;90.08
22333;BME280;11334;36.986;-121.936;2023-04-26T08:50:20;101092.97;;;12.55;89.96
22333;BME280;11334;36.986;-121.936;2023-04-26T08:52:48;101086.69;;;12.56;90.25
22333;BME280;11334;36.986;-121.936;2023-04-26T08:55:17;101087.16;;;12.51;90.10
22333;BME280;11334;36.986;-121.936;2023-04-26T08:57:49;101079.84;;;12.45;90.81
22333;BME280;11334;36.986;-121.936;2023-04-26T09:00:16;101078.03;;;12.46;90.61
22333;BME280;11334;36.986;-121.936;2023-04-26T09:02:49;101071.03;;;12.45;90.79
22333;BME280;11334;36.986;-121.936;2023-04-26T09:05:19;101076.16;;;12.38;90.50
22333;BME280;11334;36.986;-121.936;2023-04-26T09:07:49;101075.13;;;12.31;91.50
22333;BME280;11334;36.986;-121.936;2023-04-26T09:10:19;101071.19;;;12.35;90.35
22333;BME280;11334;36.986;-121.936;2023-04-26T09:12:49;101070.31;;;12.35;90.34
22333;BME280;11334;36.986;-121.936;2023-04-26T09:15:16;101074.66;;;12.36;90.41
22333;BME280;11334;36.986;-121.936;2023-04-26T09:17:42;101068.34;;;12.37;90.12
22333;BME280;11334;36.986;-121.936;2023-04-26T09:23:12;101064.50;;;12.31;90.19
22333;BME280;11334;36.986;-121.936;2023-04-26T09:25:37;101061.00;;;12.23;90.23
22333;BME280;11334;36.986;-121.936;2023-04-26T09:28:18;101067.47;;;12.21;90.97
22333;BME280;11334;36.986;-121.936;2023-04-26T09:30:46;101066.25;;;12.15;92.09
22333;BME280;11334;36.986;-121.936;2023-04-26T09:33:12;101055.91;;;12.04;92.16
22333;BME280;11334;36.986;-121.936;2023-04-26T09:35:40;101066.41;;;12.14;92.01
22333;BME280;11334;36.986;-121.936;2023-04-26T09:38:12;101066.59;;;12.20;91.41
22333;BME280;11334;36.986;-121.936;2023-04-26T09:40:48;101070.91;;;12.13;92.11
22333;BME280;11334;36.986;-121.936;2023-04-26T09:43:21;101063.41;;;12.09;93.01
22333;BME280;11334;36.986;-121.936;2023-04-26T09:45:55;101062.25;;;12.11;92.91
22333;BME280;11334;36.986;-121.936;2023-04-26T09:48:39;101059.72;;;12.02;92.70
22333;BME280;11334;36.986;-121.936;2023-04-26T09:51:12;101061.69;;;12.00;94.04
22333;BME280;11334;36.986;-121.936;2023-04-26T09:53:41;101051.44;;;12.05;93.50
22333;BME280;11334;36.986;-121.936;2023-04-26T09:56:16;101050.94;;;12.01;93.35
22333;BME280;11334;36.986;-121.936;2023-04-26T10:01:18;101072.63;;;11.97;93.91
22333;BME280;11334;36.986;-121.936;2023-04-26T10:03:46;101068.31;;;11.96;94.29
22333;BME280;11334;36.986;-121.936;2023-04-26T10:06:12;101065.13;;;11.93;94.00
22333;BME280;11334;36.986;-121.936;2023-04-26T10:08:38;101071.94;;;11.95;94.69
22333;BME280;11334;36.986;-121.936;2023-04-26T10:11:05;101066.31;;;11.98;94.17
22333;BME280;11334;36.986;-121.936;2023-04-26T10:13:41;101067.47;;;11.96;93.82
22333;BME280;11334;36.986;-121.936;2023-04-26T10:16:09;101076.47;;;12.02;93.87
22333;BME280;11334;36.986;-121.936;2023-04-26T10:18:36;101064.63;;;11.89;94.03
22333;BME280;11334;36.986;-121.936;2023-04-26T10:21:11;101057.97;;;11.85;94.20
22333;BME280;11334;36.986;-121.936;2023-04-26T10:23:40;101086.56;;;11.91;94.75
22333;BME280;11334;36.986;-121.936;2023-04-26T10:26:06;101080.88;;;11.86;94.13
22333;BME280;11334;36.986;-121.936;2023-04-26T10:31:13;101075.94;;;11.91;93.88
22333;BME280;11334;36.986;-121.936;2023-04-26T10:33:40;101080.03;;;11.86;93.40
22333;BME280;11334;36.986;-121.936;2023-04-26T10:36:13;101078.88;;;11.88;93.46
22333;BME280;11334;36.986;-121.936;2023-04-26T10:41:40;101065.91;;;11.85;93.04
22333;BME280;11334;36.986;-121.936;2023-04-26T10:44:40;101074.16;;;11.74;93.96
22333;BME280;11334;36.986;-121.936;2023-04-26T10:47:40;101080.50;;;11.81;93.09
22333;BME280;11334;36.986;-121.936;2023-04-26T10:50:08;101076.63;;;11.76;92.98
22333;BME280;11334;36.986;-121.936;2023-04-26T10:52:36;101078.31;;;11.77;93.76
22333;BME280;11334;36.986;-121.936;2023-04-26T10:55:04;101074.53;;;11.79;93.06
22333;BME280;11334;36.986;-121.936;2023-04-26T10:57:48;101076.81;;;11.74;93.34
22333;BME280;11334;36.986;-121.936;2023-04-26T11:00:15;101067.69;;;11.77;93.42
22333;BME280;11334;36.986;-121.936;2023-04-26T11:03:01;101074.31;;;11.73;93.33
22333;BME280;11334;36.986;-121.936;2023-04-26T11:08:06;101075.81;;;11.75;93.43
22333;BME280;11334;36.986;-121.936;2023-04-26T11:10:36;101083.72;;;11.68;93.91
22333;BME280;11334;36.986;-121.936;2023-04-26T11:13:03;101082.34;;;11.64;93.66
22333;BME280;11334;36.986;-121.936;2023-04-26T11:15:32;101087.97;;;11.61;93.86
22333;BME280;11334;36.986;-121.936;2023-04-26T11:18:03;101079.19;;;11.60;93.82
22333;BME280;11334;36.986;-121.936;2023-04-26T11:20:32;101088.34;;;11.66;93.70
22333;BME280;11334;36.986;-121.936;2023-04-26T11:22:59;101089.34;;;11.65;92.86
22333;BME280;11334;36.986;-121.936;2023-04-26T11:25:27;101082.16;;;11.57;93.32
22333;BME280;11334;36.986;-121.936;2023-04-26T11:28:01;101083.31;;;11.55;93.66
22333;BME280;11334;36.986;-121.936;2023-04-26T11:30:32;101078.69;;;11.57;93.31
22333;BME280;11334;36.986;-121.936;2023-04-26T11:33:02;101084.63;;;11.59;93.75
22333;BME280;11334;36.986;-121.936;2023-04-26T11:35:34;101080.34;;;11.58;93.79
22333;BME280;11334;36.986;-121.936;2023-04-26T11:38:03;101089.28;;;11.57;93.72
22333;BME280;11334;36.986;-121.936;2023-04-26T11:40:31;101085.13;;;11.54;93.39
22333;BME280;11334;36.986;-121.936;2023-04-26T11:43:03;101073.28;;;11.49;92.77
22333;BME280;11334;36.986;-121.936;2023-04-26T11:45:31;101079.38;;;11.41;93.95
22333;BME280;11334;36.986;-121.936;2023-04-26T11:48:00;101074.59;;;11.45;93.80
22333;BME280;11334;36.986;-121.936;2023-04-26T11:50:27;101086.28;;;11.52;93.72
22333;BME280;11334;36.986;-121.936;2023-04-26T11:52:59;101079.28;;;11.51;93.42
22333;BME280;11334;36.986;-121.936;2023-04-26T11:55:30;101081.75;;;11.44;93.60
22333;BME280;11334;36.986;-121.936;2023-04-26T11:58:13;101077.31;;;11.35;94.18
22333;BME280;11334;36.986;-121.936;2023-04-26T12:00:56;101078.06;;;11.28;95.07
22333;BME280;11334;36.986;-121.936;2023-04-26T12:03:22;101089.88;;;11.34;94.91
22333;BME280;11334;36.986;-121.936;2023-04-26T12:05:53;101075.78;;;11.33;94.51
22333;BME280;11334;36.986;-121.936;2023-04-26T12:08:24;101086.09;;;11.36;94.46
22333;BME280;11334;36.986;-121.936;2023-04-26T12:10:50;101084.56;;;11.34;94.48
22333;BME280;11334;36.986;-121.936;2023-04-26T12:13:18;101075.41;;;11.28;94.95
22333;BME280;11334;36.986;-121.936;2023-04-26T12:15:45;101076.94;;;11.31;95.04
22333;BME280;11334;36.986;-121.936;2023-04-26T12:18:16;101093.22;;;11.35;94.68
22333;BME280;11334;36.986;-121.936;2023-04-26T12:20:43;101091.03;;;11.31;95.29
22333;BME280;11334;36.986;-121.936;2023-04-26T12:23:16;101087.22;;;11.34;95.47
22333;BME280;11334;36.986;-121.936;2023-04-26T12:25:53;101081.47;;;11.38;95.54
22333;BME280;11334;36.986;-121.936;2023-04-26T12:28:21;101076.78;;;11.32;96.70
22333;BME280;11334;36.986;-121.936;2023-04-26T12:30:48;101083.84;;;11.41;97.03
22333;BME280;11334;36.986;-121.936;2023-04-26T12:33:15;101085.91;;;11.47;96.65
22333;BME280;11334;36.986;-121.936;2023-04-26T12:35:41;101086.56;;;11.49;97.32
22333;BME280;11334;36.986;-121.936;2023-04-26T12:38:08;101084.97;;;11.56;97.69